עמוד ראשי
METAR-TAF:

METAR-TAF

שדות תעופה :

Marsa Alam, מצרים

קו רוחב: 25-33-25N, קו אורך: 34-35-01E, גובה: 77מטר

תצפית מזג אוויר נוכחית

הדו"ח נערך לפני 1 שעות ו 23דקות, בשעה 01:00 UTC
רוח 8קשר מכיוון מערב
טמפרטורת 31 צלסיוס
לחות 17%
לחץ 1004 hPa
ראות 10 קילומטר או יותר
ללא עננים שבסיסם נמוך מ 5000 רגל או קומולונימבוס

METAR: HEMA 140100Z 27008KT CAVOK 31/03 Q1004 NOSIG

זמן: 04:23 (02:23 UTC)

תחזית

הדו"ח נערך לפני 3 שעות ו 23דקות, בשעה 23:00 UTC
תחזית בתוקף מ 14 ב 00 UTC עד 15 ב 06 UTC
רוח 10קשר מכיוון מערב
ראות 10 קילומטר או יותר
ללא עננים שבסיסם נמוך מ 5000 רגל או קומולונימבוס

TAF: HEMA 132300Z 1400/1506 28010KT CAVOK

תצפיות ותחזיות מזג אוויר לגבי יותר מ- 4,000 שדות תעופה ברחבי העולם. דוחות METAR ו- TAF.

התחנות הזמינות מסומנות בנקודות צהובות ואדומות על גבי המפה.

העבר את העכבר לנקודה הצבעונית על מנת לראות את שם התחנה.

לאחר מכן, לחץ כדי לראות את תוכן ואת תחזיות מזג האוויר.

כדי לשנות את המפה: לחץ על הכפתורים הירוקים עם הפלוס השחור כדי להתקרב; על הכפתור הירוק עם המקף כדי להתרחק; או בחיצים הירוקים למפות סמוכות.


METAR-TAF: